sensor_id;sensor_type;location;lat;lon;timestamp;P1;durP1;ratioP1;P2;durP2;ratioP2
22314;SDS011;11325;55.686;37.566;2023-07-13T00:00:54;2.10;;;1.90;;
22314;SDS011;11325;55.686;37.566;2023-07-13T00:03:40;3.30;;;2.30;;
22314;SDS011;11325;55.686;37.566;2023-07-13T00:06:19;3.95;;;2.15;;
22314;SDS011;11325;55.686;37.566;2023-07-13T00:08:48;3.20;;;2.15;;
22314;SDS011;11325;55.686;37.566;2023-07-13T00:11:26;3.17;;;2.10;;
22314;SDS011;11325;55.686;37.566;2023-07-13T00:14:07;2.90;;;2.00;;
22314;SDS011;11325;55.686;37.566;2023-07-13T00:16:37;2.58;;;2.10;;
22314;SDS011;11325;55.686;37.566;2023-07-13T00:19:06;3.62;;;1.90;;
22314;SDS011;11325;55.686;37.566;2023-07-13T00:21:45;5.50;;;2.35;;
22314;SDS011;11325;55.686;37.566;2023-07-13T00:24:15;6.50;;;2.02;;
22314;SDS011;11325;55.686;37.566;2023-07-13T00:26:56;3.00;;;2.10;;
22314;SDS011;11325;55.686;37.566;2023-07-13T00:29:35;3.12;;;2.15;;
22314;SDS011;11325;55.686;37.566;2023-07-13T00:32:05;3.92;;;1.77;;
22314;SDS011;11325;55.686;37.566;2023-07-13T00:34:33;4.10;;;1.98;;
22314;SDS011;11325;55.686;37.566;2023-07-13T00:37:02;3.60;;;2.25;;
22314;SDS011;11325;55.686;37.566;2023-07-13T00:39:31;8.48;;;2.02;;
22314;SDS011;11325;55.686;37.566;2023-07-13T00:42:09;2.10;;;1.90;;
22314;SDS011;11325;55.686;37.566;2023-07-13T00:45:01;2.33;;;2.02;;
22314;SDS011;11325;55.686;37.566;2023-07-13T00:47:42;2.60;;;2.10;;
22314;SDS011;11325;55.686;37.566;2023-07-13T00:50:22;3.02;;;2.15;;
22314;SDS011;11325;55.686;37.566;2023-07-13T00:53:20;4.85;;;2.30;;
22314;SDS011;11325;55.686;37.566;2023-07-13T00:56:00;2.72;;;1.95;;
22314;SDS011;11325;55.686;37.566;2023-07-13T00:58:29;2.65;;;2.17;;
22314;SDS011;11325;55.686;37.566;2023-07-13T01:01:07;2.70;;;2.15;;
22314;SDS011;11325;55.686;37.566;2023-07-13T01:03:36;11.40;;;2.35;;
22314;SDS011;11325;55.686;37.566;2023-07-13T01:06:05;2.10;;;1.90;;
22314;SDS011;11325;55.686;37.566;2023-07-13T01:09:04;2.47;;;1.98;;
22314;SDS011;11325;55.686;37.566;2023-07-13T01:11:43;4.70;;;2.22;;
22314;SDS011;11325;55.686;37.566;2023-07-13T01:14:12;10.65;;;1.90;;
22314;SDS011;11325;55.686;37.566;2023-07-13T01:16:41;2.80;;;2.17;;
22314;SDS011;11325;55.686;37.566;2023-07-13T01:22:00;9.40;;;2.70;;
22314;SDS011;11325;55.686;37.566;2023-07-13T01:24:29;3.70;;;2.45;;
22314;SDS011;11325;55.686;37.566;2023-07-13T01:27:10;3.33;;;2.42;;
22314;SDS011;11325;55.686;37.566;2023-07-13T01:29:48;4.37;;;2.47;;
22314;SDS011;11325;55.686;37.566;2023-07-13T01:32:21;5.62;;;2.27;;
22314;SDS011;11325;55.686;37.566;2023-07-13T01:34:51;3.60;;;2.45;;
22314;SDS011;11325;55.686;37.566;2023-07-13T01:37:22;3.33;;;2.40;;
22314;SDS011;11325;55.686;37.566;2023-07-13T01:40:03;5.50;;;2.58;;
22314;SDS011;11325;55.686;37.566;2023-07-13T01:42:42;3.98;;;2.30;;
22314;SDS011;11325;55.686;37.566;2023-07-13T01:45:10;5.05;;;2.40;;
22314;SDS011;11325;55.686;37.566;2023-07-13T01:47:50;3.22;;;2.17;;
22314;SDS011;11325;55.686;37.566;2023-07-13T01:50:19;3.98;;;2.20;;
22314;SDS011;11325;55.686;37.566;2023-07-13T01:53:17;4.10;;;2.45;;
22314;SDS011;11325;55.686;37.566;2023-07-13T01:55:56;6.05;;;2.80;;
22314;SDS011;11325;55.686;37.566;2023-07-13T01:58:25;5.65;;;2.70;;
22314;SDS011;11325;55.686;37.566;2023-07-13T02:01:03;5.67;;;2.30;;
22314;SDS011;11325;55.686;37.566;2023-07-13T02:03:33;5.47;;;2.37;;
22314;SDS011;11325;55.686;37.566;2023-07-13T02:06:01;2.60;;;2.40;;
22314;SDS011;11325;55.686;37.566;2023-07-13T02:08:31;4.83;;;2.50;;
22314;SDS011;11325;55.686;37.566;2023-07-13T02:11:02;2.50;;;2.27;;
22314;SDS011;11325;55.686;37.566;2023-07-13T02:13:30;6.97;;;2.42;;
22314;SDS011;11325;55.686;37.566;2023-07-13T02:15:59;3.35;;;2.33;;
22314;SDS011;11325;55.686;37.566;2023-07-13T02:18:28;2.83;;;2.37;;
22314;SDS011;11325;55.686;37.566;2023-07-13T02:21:08;10.58;;;2.65;;
22314;SDS011;11325;55.686;37.566;2023-07-13T02:23:36;4.35;;;2.33;;
22314;SDS011;11325;55.686;37.566;2023-07-13T02:26:05;3.85;;;2.60;;
22314;SDS011;11325;55.686;37.566;2023-07-13T02:28:34;6.25;;;2.42;;
22314;SDS011;11325;55.686;37.566;2023-07-13T02:31:10;3.60;;;2.55;;
22314;SDS011;11325;55.686;37.566;2023-07-13T02:33:50;5.53;;;2.65;;
22314;SDS011;11325;55.686;37.566;2023-07-13T02:36:29;3.80;;;2.15;;
22314;SDS011;11325;55.686;37.566;2023-07-13T02:39:08;3.67;;;2.30;;
22314;SDS011;11325;55.686;37.566;2023-07-13T02:41:37;2.80;;;2.25;;
22314;SDS011;11325;55.686;37.566;2023-07-13T02:44:06;3.10;;;2.35;;
22314;SDS011;11325;55.686;37.566;2023-07-13T02:46:46;4.78;;;2.50;;
22314;SDS011;11325;55.686;37.566;2023-07-13T02:49:31;7.03;;;2.42;;
22314;SDS011;11325;55.686;37.566;2023-07-13T02:52:10;4.47;;;2.30;;
22314;SDS011;11325;55.686;37.566;2023-07-13T02:54:49;4.58;;;2.58;;
22314;SDS011;11325;55.686;37.566;2023-07-13T02:57:17;2.85;;;2.25;;
22314;SDS011;11325;55.686;37.566;2023-07-13T02:59:46;4.75;;;2.52;;
22314;SDS011;11325;55.686;37.566;2023-07-13T03:02:25;5.00;;;2.87;;
22314;SDS011;11325;55.686;37.566;2023-07-13T03:05:06;2.87;;;2.30;;
22314;SDS011;11325;55.686;37.566;2023-07-13T03:07:35;3.30;;;2.70;;
22314;SDS011;11325;55.686;37.566;2023-07-13T03:10:04;3.15;;;2.30;;
22314;SDS011;11325;55.686;37.566;2023-07-13T03:12:33;4.35;;;2.58;;
22314;SDS011;11325;55.686;37.566;2023-07-13T03:15:02;3.62;;;2.20;;
22314;SDS011;11325;55.686;37.566;2023-07-13T03:17:31;4.60;;;2.40;;
22314;SDS011;11325;55.686;37.566;2023-07-13T03:19:59;3.52;;;2.33;;
22314;SDS011;11325;55.686;37.566;2023-07-13T03:22:29;5.12;;;2.90;;
22314;SDS011;11325;55.686;37.566;2023-07-13T03:24:57;5.33;;;2.58;;
22314;SDS011;11325;55.686;37.566;2023-07-13T03:27:26;2.90;;;2.40;;
22314;SDS011;11325;55.686;37.566;2023-07-13T03:29:54;3.70;;;2.35;;
22314;SDS011;11325;55.686;37.566;2023-07-13T03:32:23;5.75;;;2.20;;
22314;SDS011;11325;55.686;37.566;2023-07-13T03:34:52;3.58;;;2.62;;
22314;SDS011;11325;55.686;37.566;2023-07-13T03:37:30;2.90;;;2.25;;
22314;SDS011;11325;55.686;37.566;2023-07-13T03:39:59;3.15;;;2.40;;
22314;SDS011;11325;55.686;37.566;2023-07-13T03:42:29;6.35;;;2.50;;
22314;SDS011;11325;55.686;37.566;2023-07-13T03:44:58;9.90;;;2.80;;
22314;SDS011;11325;55.686;37.566;2023-07-13T03:47:27;5.35;;;2.30;;
22314;SDS011;11325;55.686;37.566;2023-07-13T03:50:06;4.12;;;2.25;;
22314;SDS011;11325;55.686;37.566;2023-07-13T03:52:35;5.33;;;2.42;;
22314;SDS011;11325;55.686;37.566;2023-07-13T03:55:03;5.95;;;2.50;;
22314;SDS011;11325;55.686;37.566;2023-07-13T03:57:34;4.67;;;2.75;;
22314;SDS011;11325;55.686;37.566;2023-07-13T04:00:13;3.95;;;2.77;;
22314;SDS011;11325;55.686;37.566;2023-07-13T04:02:43;5.17;;;3.12;;
22314;SDS011;11325;55.686;37.566;2023-07-13T04:05:13;4.95;;;2.62;;
22314;SDS011;11325;55.686;37.566;2023-07-13T04:07:42;4.40;;;2.60;;
22314;SDS011;11325;55.686;37.566;2023-07-13T04:10:21;12.63;;;2.72;;
22314;SDS011;11325;55.686;37.566;2023-07-13T04:12:49;8.45;;;2.70;;
22314;SDS011;11325;55.686;37.566;2023-07-13T04:15:18;7.33;;;2.85;;
22314;SDS011;11325;55.686;37.566;2023-07-13T04:17:46;11.18;;;2.70;;
22314;SDS011;11325;55.686;37.566;2023-07-13T04:20:15;8.15;;;2.72;;
22314;SDS011;11325;55.686;37.566;2023-07-13T04:22:44;2.80;;;2.40;;
22314;SDS011;11325;55.686;37.566;2023-07-13T04:25:23;2.67;;;2.35;;
22314;SDS011;11325;55.686;37.566;2023-07-13T04:27:53;4.22;;;2.77;;
22314;SDS011;11325;55.686;37.566;2023-07-13T04:30:21;7.20;;;2.70;;
22314;SDS011;11325;55.686;37.566;2023-07-13T04:33:00;3.67;;;2.30;;
22314;SDS011;11325;55.686;37.566;2023-07-13T04:35:29;7.45;;;3.10;;
22314;SDS011;11325;55.686;37.566;2023-07-13T04:38:09;5.17;;;2.12;;
22314;SDS011;11325;55.686;37.566;2023-07-13T04:40:49;3.77;;;2.45;;
22314;SDS011;11325;55.686;37.566;2023-07-13T04:43:35;4.42;;;2.92;;
22314;SDS011;11325;55.686;37.566;2023-07-13T04:46:04;4.15;;;2.42;;
22314;SDS011;11325;55.686;37.566;2023-07-13T04:48:48;8.38;;;2.90;;
22314;SDS011;11325;55.686;37.566;2023-07-13T04:51:18;6.50;;;2.85;;
22314;SDS011;11325;55.686;37.566;2023-07-13T04:53:47;6.42;;;2.65;;
22314;SDS011;11325;55.686;37.566;2023-07-13T04:56:15;5.30;;;2.85;;
22314;SDS011;11325;55.686;37.566;2023-07-13T04:58:54;7.30;;;2.77;;
22314;SDS011;11325;55.686;37.566;2023-07-13T05:01:23;7.35;;;2.90;;
22314;SDS011;11325;55.686;37.566;2023-07-13T05:04:22;9.08;;;3.08;;
22314;SDS011;11325;55.686;37.566;2023-07-13T05:07:01;3.87;;;2.52;;
22314;SDS011;11325;55.686;37.566;2023-07-13T05:09:29;3.95;;;2.75;;
22314;SDS011;11325;55.686;37.566;2023-07-13T05:12:08;3.37;;;2.40;;
22314;SDS011;11325;55.686;37.566;2023-07-13T05:14:37;6.58;;;2.90;;
22314;SDS011;11325;55.686;37.566;2023-07-13T05:17:05;7.22;;;2.80;;
22314;SDS011;11325;55.686;37.566;2023-07-13T05:19:34;3.10;;;2.17;;
22314;SDS011;11325;55.686;37.566;2023-07-13T05:22:03;8.58;;;2.98;;
22314;SDS011;11325;55.686;37.566;2023-07-13T05:24:32;7.22;;;2.65;;
22314;SDS011;11325;55.686;37.566;2023-07-13T05:27:01;4.70;;;2.50;;
22314;SDS011;11325;55.686;37.566;2023-07-13T05:29:40;4.92;;;2.58;;
22314;SDS011;11325;55.686;37.566;2023-07-13T05:32:09;9.88;;;2.58;;
22314;SDS011;11325;55.686;37.566;2023-07-13T05:34:47;5.70;;;3.33;;
22314;SDS011;11325;55.686;37.566;2023-07-13T05:37:15;5.20;;;2.35;;
22314;SDS011;11325;55.686;37.566;2023-07-13T05:39:53;5.55;;;2.55;;
22314;SDS011;11325;55.686;37.566;2023-07-13T05:42:32;6.20;;;2.42;;
22314;SDS011;11325;55.686;37.566;2023-07-13T05:45:01;5.58;;;2.50;;
22314;SDS011;11325;55.686;37.566;2023-07-13T05:47:30;5.72;;;2.37;;
22314;SDS011;11325;55.686;37.566;2023-07-13T05:50:09;7.28;;;2.45;;
22314;SDS011;11325;55.686;37.566;2023-07-13T05:52:38;5.97;;;2.20;;
22314;SDS011;11325;55.686;37.566;2023-07-13T05:55:07;5.70;;;2.80;;
22314;SDS011;11325;55.686;37.566;2023-07-13T05:57:35;9.98;;;2.42;;
22314;SDS011;11325;55.686;37.566;2023-07-13T06:00:04;7.15;;;2.72;;
22314;SDS011;11325;55.686;37.566;2023-07-13T06:02:33;3.83;;;2.58;;
22314;SDS011;11325;55.686;37.566;2023-07-13T06:05:02;5.03;;;2.67;;
22314;SDS011;11325;55.686;37.566;2023-07-13T06:07:41;6.05;;;2.75;;
22314;SDS011;11325;55.686;37.566;2023-07-13T06:10:10;5.85;;;2.50;;
22314;SDS011;11325;55.686;37.566;2023-07-13T06:12:49;4.50;;;2.72;;
22314;SDS011;11325;55.686;37.566;2023-07-13T06:15:29;6.70;;;2.75;;
22314;SDS011;11325;55.686;37.566;2023-07-13T06:17:58;5.70;;;2.85;;
22314;SDS011;11325;55.686;37.566;2023-07-13T06:20:38;10.65;;;3.05;;
22314;SDS011;11325;55.686;37.566;2023-07-13T06:23:16;4.40;;;2.60;;
22314;SDS011;11325;55.686;37.566;2023-07-13T06:25:45;5.12;;;2.40;;
22314;SDS011;11325;55.686;37.566;2023-07-13T06:28:14;7.15;;;2.40;;
22314;SDS011;11325;55.686;37.566;2023-07-13T06:30:42;2.77;;;2.05;;
22314;SDS011;11325;55.686;37.566;2023-07-13T06:33:21;4.83;;;2.42;;
22314;SDS011;11325;55.686;37.566;2023-07-13T06:36:01;7.20;;;2.60;;
22314;SDS011;11325;55.686;37.566;2023-07-13T06:38:40;5.03;;;1.75;;
22314;SDS011;11325;55.686;37.566;2023-07-13T06:41:08;5.53;;;2.10;;
22314;SDS011;11325;55.686;37.566;2023-07-13T06:43:37;3.52;;;2.17;;
22314;SDS011;11325;55.686;37.566;2023-07-13T06:46:06;5.50;;;2.25;;
22314;SDS011;11325;55.686;37.566;2023-07-13T06:48:45;7.17;;;2.30;;
22314;SDS011;11325;55.686;37.566;2023-07-13T06:51:14;4.35;;;3.30;;
22314;SDS011;11325;55.686;37.566;2023-07-13T06:53:42;4.62;;;2.60;;
22314;SDS011;11325;55.686;37.566;2023-07-13T06:56:11;6.90;;;2.90;;
22314;SDS011;11325;55.686;37.566;2023-07-13T06:58:40;5.40;;;2.50;;
22314;SDS011;11325;55.686;37.566;2023-07-13T07:01:08;9.35;;;2.22;;
22314;SDS011;11325;55.686;37.566;2023-07-13T07:03:37;2.92;;;2.15;;
22314;SDS011;11325;55.686;37.566;2023-07-13T07:06:11;4.55;;;2.40;;
22314;SDS011;11325;55.686;37.566;2023-07-13T07:08:36;5.80;;;2.17;;
22314;SDS011;11325;55.686;37.566;2023-07-13T07:11:19;3.83;;;2.12;;
22314;SDS011;11325;55.686;37.566;2023-07-13T07:14:00;4.67;;;2.60;;
22314;SDS011;11325;55.686;37.566;2023-07-13T07:16:39;3.10;;;2.10;;
22314;SDS011;11325;55.686;37.566;2023-07-13T07:19:07;3.00;;;1.80;;
22314;SDS011;11325;55.686;37.566;2023-07-13T07:21:36;18.37;;;4.53;;
22314;SDS011;11325;55.686;37.566;2023-07-13T07:24:05;11.57;;;5.62;;
22314;SDS011;11325;55.686;37.566;2023-07-13T07:26:44;11.40;;;5.17;;
22314;SDS011;11325;55.686;37.566;2023-07-13T07:29:23;9.00;;;4.80;;
22314;SDS011;11325;55.686;37.566;2023-07-13T07:31:53;18.73;;;5.10;;
22314;SDS011;11325;55.686;37.566;2023-07-13T07:34:32;8.05;;;3.52;;
22314;SDS011;11325;55.686;37.566;2023-07-13T07:37:00;14.38;;;6.40;;
22314;SDS011;11325;55.686;37.566;2023-07-13T07:39:29;25.25;;;10.63;;
22314;SDS011;11325;55.686;37.566;2023-07-13T07:41:58;39.50;;;16.42;;
22314;SDS011;11325;55.686;37.566;2023-07-13T07:44:27;29.65;;;12.60;;
22314;SDS011;11325;55.686;37.566;2023-07-13T07:46:55;34.15;;;13.03;;
22314;SDS011;11325;55.686;37.566;2023-07-13T07:49:35;26.77;;;9.60;;
22314;SDS011;11325;55.686;37.566;2023-07-13T07:52:04;16.17;;;7.72;;
22314;SDS011;11325;55.686;37.566;2023-07-13T07:54:43;24.23;;;9.55;;
22314;SDS011;11325;55.686;37.566;2023-07-13T07:57:12;18.75;;;6.80;;
22314;SDS011;11325;55.686;37.566;2023-07-13T07:59:40;19.85;;;5.12;;
22314;SDS011;11325;55.686;37.566;2023-07-13T08:02:19;47.35;;;13.05;;
22314;SDS011;11325;55.686;37.566;2023-07-13T08:04:48;51.33;;;17.15;;
22314;SDS011;11325;55.686;37.566;2023-07-13T08:07:26;61.20;;;18.55;;
22314;SDS011;11325;55.686;37.566;2023-07-13T08:09:55;52.25;;;14.65;;
22314;SDS011;11325;55.686;37.566;2023-07-13T08:12:23;52.90;;;15.23;;
22314;SDS011;11325;55.686;37.566;2023-07-13T08:15:03;22.73;;;6.47;;
22314;SDS011;11325;55.686;37.566;2023-07-13T08:17:42;14.18;;;4.37;;
22314;SDS011;11325;55.686;37.566;2023-07-13T08:20:21;9.20;;;3.52;;
22314;SDS011;11325;55.686;37.566;2023-07-13T08:22:49;7.20;;;3.80;;
22314;SDS011;11325;55.686;37.566;2023-07-13T08:25:18;15.23;;;4.30;;
22314;SDS011;11325;55.686;37.566;2023-07-13T08:27:48;16.62;;;6.15;;
22314;SDS011;11325;55.686;37.566;2023-07-13T08:30:27;25.37;;;6.05;;
22314;SDS011;11325;55.686;37.566;2023-07-13T08:32:55;25.00;;;7.58;;
22314;SDS011;11325;55.686;37.566;2023-07-13T08:35:24;22.40;;;7.70;;
22314;SDS011;11325;55.686;37.566;2023-07-13T08:38:04;15.13;;;5.17;;
22314;SDS011;11325;55.686;37.566;2023-07-13T08:40:33;13.85;;;4.75;;
22314;SDS011;11325;55.686;37.566;2023-07-13T08:43:13;7.45;;;3.12;;
22314;SDS011;11325;55.686;37.566;2023-07-13T08:45:49;8.33;;;2.72;;
22314;SDS011;11325;55.686;37.566;2023-07-13T08:48:32;8.80;;;3.02;;
22314;SDS011;11325;55.686;37.566;2023-07-13T08:53:42;6.90;;;3.47;;
22314;SDS011;11325;55.686;37.566;2023-07-13T08:56:12;7.78;;;3.30;;
22314;SDS011;11325;55.686;37.566;2023-07-13T08:58:57;7.28;;;2.87;;
22314;SDS011;11325;55.686;37.566;2023-07-13T09:01:45;6.97;;;3.35;;
22314;SDS011;11325;55.686;37.566;2023-07-13T09:04:09;5.08;;;3.20;;
22314;SDS011;11325;55.686;37.566;2023-07-13T09:09:29;12.25;;;4.67;;
22314;SDS011;11325;55.686;37.566;2023-07-13T09:14:49;9.03;;;3.92;;
22314;SDS011;11325;55.686;37.566;2023-07-13T09:17:19;12.03;;;4.45;;
22314;SDS011;11325;55.686;37.566;2023-07-13T09:19:50;10.95;;;5.55;;
22314;SDS011;11325;55.686;37.566;2023-07-13T09:22:19;7.08;;;4.35;;
22314;SDS011;11325;55.686;37.566;2023-07-13T09:27:22;4.62;;;3.02;;
22314;SDS011;11325;55.686;37.566;2023-07-13T09:32:47;8.25;;;3.83;;
22314;SDS011;11325;55.686;37.566;2023-07-13T09:35:16;8.78;;;3.42;;
22314;SDS011;11325;55.686;37.566;2023-07-13T09:37:45;10.23;;;3.92;;
22314;SDS011;11325;55.686;37.566;2023-07-13T09:40:17;8.88;;;4.00;;
22314;SDS011;11325;55.686;37.566;2023-07-13T09:42:45;12.55;;;3.70;;
22314;SDS011;11325;55.686;37.566;2023-07-13T09:45:14;6.92;;;3.40;;
22314;SDS011;11325;55.686;37.566;2023-07-13T09:47:44;8.93;;;3.47;;
22314;SDS011;11325;55.686;37.566;2023-07-13T09:50:15;5.80;;;3.72;;
22314;SDS011;11325;55.686;37.566;2023-07-13T09:52:48;10.05;;;4.30;;
22314;SDS011;11325;55.686;37.566;2023-07-13T09:55:31;6.83;;;3.70;;
22314;SDS011;11325;55.686;37.566;2023-07-13T09:58:13;6.08;;;3.55;;
22314;SDS011;11325;55.686;37.566;2023-07-13T10:00:43;9.78;;;4.33;;
22314;SDS011;11325;55.686;37.566;2023-07-13T10:03:23;6.42;;;3.20;;
22314;SDS011;11325;55.686;37.566;2023-07-13T10:05:52;5.10;;;3.33;;
22314;SDS011;11325;55.686;37.566;2023-07-13T10:08:25;6.25;;;3.98;;
22314;SDS011;11325;55.686;37.566;2023-07-13T10:11:19;9.20;;;3.50;;
22314;SDS011;11325;55.686;37.566;2023-07-13T10:13:52;5.83;;;4.03;;
22314;SDS011;11325;55.686;37.566;2023-07-13T10:19:05;6.80;;;3.80;;
22314;SDS011;11325;55.686;37.566;2023-07-13T10:21:38;6.92;;;3.87;;
22314;SDS011;11325;55.686;37.566;2023-07-13T10:24:10;8.65;;;4.25;;
22314;SDS011;11325;55.686;37.566;2023-07-13T10:29:25;5.00;;;3.30;;
22314;SDS011;11325;55.686;37.566;2023-07-13T10:32:09;8.85;;;3.58;;
22314;SDS011;11325;55.686;37.566;2023-07-13T10:34:35;12.47;;;3.72;;
22314;SDS011;11325;55.686;37.566;2023-07-13T10:37:18;12.33;;;3.83;;
22314;SDS011;11325;55.686;37.566;2023-07-13T10:39:54;6.90;;;3.40;;
22314;SDS011;11325;55.686;37.566;2023-07-13T10:42:35;7.12;;;3.35;;
22314;SDS011;11325;55.686;37.566;2023-07-13T10:45:14;5.37;;;3.33;;
22314;SDS011;11325;55.686;37.566;2023-07-13T10:47:44;5.55;;;3.37;;
22314;SDS011;11325;55.686;37.566;2023-07-13T10:50:24;15.65;;;3.12;;
22314;SDS011;11325;55.686;37.566;2023-07-13T10:53:21;7.22;;;3.75;;
22314;SDS011;11325;55.686;37.566;2023-07-13T11:01:16;6.95;;;3.75;;
22314;SDS011;11325;55.686;37.566;2023-07-13T11:03:54;7.83;;;4.37;;
22314;SDS011;11325;55.686;37.566;2023-07-13T11:06:34;6.42;;;3.58;;
22314;SDS011;11325;55.686;37.566;2023-07-13T11:09:38;11.68;;;3.72;;
22314;SDS011;11325;55.686;37.566;2023-07-13T11:25:21;12.93;;;4.15;;
22314;SDS011;11325;55.686;37.566;2023-07-13T11:35:58;4.20;;;3.00;;
22314;SDS011;11325;55.686;37.566;2023-07-13T11:38:38;8.93;;;3.40;;
22314;SDS011;11325;55.686;37.566;2023-07-13T11:43:50;5.42;;;3.12;;
22314;SDS011;11325;55.686;37.566;2023-07-13T11:48:59;8.13;;;3.55;;
22314;SDS011;11325;55.686;37.566;2023-07-13T11:51:38;5.92;;;3.20;;
22314;SDS011;11325;55.686;37.566;2023-07-13T11:56:58;11.30;;;4.80;;
22314;SDS011;11325;55.686;37.566;2023-07-13T11:59:29;11.95;;;4.50;;
22314;SDS011;11325;55.686;37.566;2023-07-13T12:01:59;7.80;;;3.40;;
22314;SDS011;11325;55.686;37.566;2023-07-13T12:04:37;4.35;;;3.30;;
22314;SDS011;11325;55.686;37.566;2023-07-13T12:07:11;6.50;;;3.67;;
22314;SDS011;11325;55.686;37.566;2023-07-13T12:09:47;5.35;;;3.10;;
22314;SDS011;11325;55.686;37.566;2023-07-13T12:12:18;3.67;;;2.87;;
22314;SDS011;11325;55.686;37.566;2023-07-13T12:14:50;4.42;;;3.15;;
22314;SDS011;11325;55.686;37.566;2023-07-13T12:17:27;7.67;;;3.58;;
22314;SDS011;11325;55.686;37.566;2023-07-13T12:19:56;6.40;;;3.85;;
22314;SDS011;11325;55.686;37.566;2023-07-13T12:22:25;10.75;;;3.80;;
22314;SDS011;11325;55.686;37.566;2023-07-13T12:25:04;7.08;;;3.77;;
22314;SDS011;11325;55.686;37.566;2023-07-13T12:27:33;6.20;;;3.30;;
22314;SDS011;11325;55.686;37.566;2023-07-13T12:30:04;4.22;;;3.30;;
22314;SDS011;11325;55.686;37.566;2023-07-13T12:32:42;18.40;;;3.47;;
22314;SDS011;11325;55.686;37.566;2023-07-13T12:35:16;6.45;;;3.77;;
22314;SDS011;11325;55.686;37.566;2023-07-13T12:37:56;5.83;;;3.33;;
22314;SDS011;11325;55.686;37.566;2023-07-13T12:40:36;6.83;;;3.45;;
22314;SDS011;11325;55.686;37.566;2023-07-13T12:43:15;7.33;;;3.35;;
22314;SDS011;11325;55.686;37.566;2023-07-13T12:45:58;8.28;;;3.65;;
22314;SDS011;11325;55.686;37.566;2023-07-13T12:48:38;4.00;;;3.30;;
22314;SDS011;11325;55.686;37.566;2023-07-13T12:51:21;6.28;;;4.17;;
22314;SDS011;11325;55.686;37.566;2023-07-13T12:53:49;7.72;;;4.45;;
22314;SDS011;11325;55.686;37.566;2023-07-13T12:56:19;11.90;;;3.70;;
22314;SDS011;11325;55.686;37.566;2023-07-13T12:59:00;5.65;;;3.45;;
22314;SDS011;11325;55.686;37.566;2023-07-13T13:01:29;7.47;;;3.42;;
22314;SDS011;11325;55.686;37.566;2023-07-13T13:04:14;7.65;;;3.70;;
22314;SDS011;11325;55.686;37.566;2023-07-13T13:06:43;8.23;;;3.58;;
22314;SDS011;11325;55.686;37.566;2023-07-13T13:09:22;5.37;;;3.12;;
22314;SDS011;11325;55.686;37.566;2023-07-13T13:11:51;5.08;;;2.65;;
22314;SDS011;11325;55.686;37.566;2023-07-13T13:14:30;8.13;;;3.52;;
22314;SDS011;11325;55.686;37.566;2023-07-13T13:17:22;4.87;;;3.15;;
22314;SDS011;11325;55.686;37.566;2023-07-13T13:19:52;8.33;;;3.65;;
22314;SDS011;11325;55.686;37.566;2023-07-13T13:22:21;9.23;;;2.87;;
22314;SDS011;11325;55.686;37.566;2023-07-13T13:25:00;7.08;;;3.70;;
22314;SDS011;11325;55.686;37.566;2023-07-13T13:27:29;6.90;;;3.20;;
22314;SDS011;11325;55.686;37.566;2023-07-13T13:30:10;8.65;;;3.47;;
22314;SDS011;11325;55.686;37.566;2023-07-13T13:32:40;5.55;;;3.58;;
22314;SDS011;11325;55.686;37.566;2023-07-13T13:35:19;11.03;;;3.40;;
22314;SDS011;11325;55.686;37.566;2023-07-13T13:40:49;5.28;;;3.75;;
22314;SDS011;11325;55.686;37.566;2023-07-13T13:43:18;5.65;;;3.55;;
22314;SDS011;11325;55.686;37.566;2023-07-13T13:45:47;9.45;;;4.15;;
22314;SDS011;11325;55.686;37.566;2023-07-13T13:48:45;13.40;;;4.00;;
22314;SDS011;11325;55.686;37.566;2023-07-13T13:51:24;8.43;;;3.45;;
22314;SDS011;11325;55.686;37.566;2023-07-13T13:53:53;10.53;;;4.45;;
22314;SDS011;11325;55.686;37.566;2023-07-13T13:56:21;5.40;;;3.67;;
22314;SDS011;11325;55.686;37.566;2023-07-13T13:59:00;8.95;;;3.95;;
22314;SDS011;11325;55.686;37.566;2023-07-13T14:01:39;9.93;;;4.22;;
22314;SDS011;11325;55.686;37.566;2023-07-13T14:06:50;8.68;;;3.67;;
22314;SDS011;11325;55.686;37.566;2023-07-13T14:09:19;12.90;;;3.65;;
22314;SDS011;11325;55.686;37.566;2023-07-13T14:11:58;7.00;;;3.83;;
22314;SDS011;11325;55.686;37.566;2023-07-13T14:14:37;8.30;;;4.00;;
22314;SDS011;11325;55.686;37.566;2023-07-13T14:19:50;11.28;;;4.50;;
22314;SDS011;11325;55.686;37.566;2023-07-13T14:22:31;10.68;;;4.33;;
22314;SDS011;11325;55.686;37.566;2023-07-13T14:25:00;6.40;;;4.28;;
22314;SDS011;11325;55.686;37.566;2023-07-13T14:27:30;17.30;;;4.47;;
22314;SDS011;11325;55.686;37.566;2023-07-13T14:29:59;8.23;;;4.35;;
22314;SDS011;11325;55.686;37.566;2023-07-13T14:32:38;6.47;;;3.70;;
22314;SDS011;11325;55.686;37.566;2023-07-13T14:35:18;8.75;;;3.77;;
22314;SDS011;11325;55.686;37.566;2023-07-13T14:37:48;13.25;;;3.95;;
22314;SDS011;11325;55.686;37.566;2023-07-13T14:40:19;7.17;;;3.95;;
22314;SDS011;11325;55.686;37.566;2023-07-13T14:43:02;10.45;;;4.35;;
22314;SDS011;11325;55.686;37.566;2023-07-13T14:45:31;11.45;;;4.20;;
22314;SDS011;11325;55.686;37.566;2023-07-13T14:48:19;10.85;;;3.52;;
22314;SDS011;11325;55.686;37.566;2023-07-13T14:50:49;10.75;;;3.55;;
22314;SDS011;11325;55.686;37.566;2023-07-13T14:53:17;6.12;;;3.40;;
22314;SDS011;11325;55.686;37.566;2023-07-13T14:55:45;7.60;;;3.17;;
22314;SDS011;11325;55.686;37.566;2023-07-13T14:58:24;4.83;;;3.37;;
22314;SDS011;11325;55.686;37.566;2023-07-13T15:00:53;6.15;;;3.62;;
22314;SDS011;11325;55.686;37.566;2023-07-13T15:03:33;9.88;;;3.65;;
22314;SDS011;11325;55.686;37.566;2023-07-13T15:06:12;9.93;;;3.75;;
22314;SDS011;11325;55.686;37.566;2023-07-13T15:08:57;8.73;;;3.08;;
22314;SDS011;11325;55.686;37.566;2023-07-13T15:11:26;6.72;;;3.47;;
22314;SDS011;11325;55.686;37.566;2023-07-13T15:13:54;9.43;;;3.85;;
22314;SDS011;11325;55.686;37.566;2023-07-13T15:16:24;6.60;;;3.37;;
22314;SDS011;11325;55.686;37.566;2023-07-13T15:19:04;5.42;;;3.27;;
22314;SDS011;11325;55.686;37.566;2023-07-13T15:21:32;11.83;;;5.20;;
22314;SDS011;11325;55.686;37.566;2023-07-13T15:24:02;7.20;;;3.67;;
22314;SDS011;11325;55.686;37.566;2023-07-13T15:26:31;7.85;;;3.20;;
22314;SDS011;11325;55.686;37.566;2023-07-13T15:29:00;6.15;;;2.83;;
22314;SDS011;11325;55.686;37.566;2023-07-13T15:31:29;9.58;;;3.47;;
22314;SDS011;11325;55.686;37.566;2023-07-13T15:33:59;9.50;;;3.90;;
22314;SDS011;11325;55.686;37.566;2023-07-13T15:36:28;12.40;;;3.52;;
22314;SDS011;11325;55.686;37.566;2023-07-13T15:38:56;10.53;;;3.55;;
22314;SDS011;11325;55.686;37.566;2023-07-13T15:41:35;5.62;;;3.75;;
22314;SDS011;11325;55.686;37.566;2023-07-13T15:44:05;7.55;;;3.65;;
22314;SDS011;11325;55.686;37.566;2023-07-13T15:46:44;5.55;;;3.60;;
22314;SDS011;11325;55.686;37.566;2023-07-13T15:49:13;9.23;;;3.30;;
22314;SDS011;11325;55.686;37.566;2023-07-13T15:51:51;9.60;;;3.27;;
22314;SDS011;11325;55.686;37.566;2023-07-13T15:54:20;5.10;;;3.25;;
22314;SDS011;11325;55.686;37.566;2023-07-13T15:57:00;7.12;;;3.55;;
22314;SDS011;11325;55.686;37.566;2023-07-13T15:59:29;5.45;;;3.50;;
22314;SDS011;11325;55.686;37.566;2023-07-13T16:01:58;7.67;;;3.75;;
22314;SDS011;11325;55.686;37.566;2023-07-13T16:04:37;9.93;;;3.77;;
22314;SDS011;11325;55.686;37.566;2023-07-13T16:07:16;6.45;;;3.98;;
22314;SDS011;11325;55.686;37.566;2023-07-13T16:09:46;7.47;;;3.92;;
22314;SDS011;11325;55.686;37.566;2023-07-13T16:12:16;9.58;;;3.77;;
22314;SDS011;11325;55.686;37.566;2023-07-13T16:14:45;6.42;;;4.05;;